sensor_id;sensor_type;location;lat;lon;timestamp;temperature;humidity
31619;DHT22;18230;51.502;7.108;2022-10-16T00:02:59;14.80;99.90
31619;DHT22;18230;51.502;7.108;2022-10-16T00:08:00;14.80;99.90
31619;DHT22;18230;51.502;7.108;2022-10-16T00:13:04;14.80;99.90
31619;DHT22;18230;51.502;7.108;2022-10-16T00:18:05;14.70;99.90
31619;DHT22;18230;51.502;7.108;2022-10-16T00:23:05;14.70;99.90
31619;DHT22;18230;51.502;7.108;2022-10-16T00:28:06;14.70;99.90
31619;DHT22;18230;51.502;7.108;2022-10-16T00:33:07;14.70;99.90
31619;DHT22;18230;51.502;7.108;2022-10-16T00:38:07;14.70;99.90
31619;DHT22;18230;51.502;7.108;2022-10-16T00:43:40;14.60;99.90
31619;DHT22;18230;51.502;7.108;2022-10-16T00:48:42;14.60;99.90
31619;DHT22;18230;51.502;7.108;2022-10-16T00:53:46;14.70;99.90
31619;DHT22;18230;51.502;7.108;2022-10-16T00:58:47;14.60;99.90
31619;DHT22;18230;51.502;7.108;2022-10-16T01:03:48;14.60;99.90
31619;DHT22;18230;51.502;7.108;2022-10-16T01:13:59;14.60;99.90
31619;DHT22;18230;51.502;7.108;2022-10-16T01:24:47;14.60;99.90
31619;DHT22;18230;51.502;7.108;2022-10-16T01:30:18;14.60;99.90
31619;DHT22;18230;51.502;7.108;2022-10-16T01:35:25;14.50;99.90
31619;DHT22;18230;51.502;7.108;2022-10-16T01:40:28;14.50;99.90
31619;DHT22;18230;51.502;7.108;2022-10-16T01:45:31;14.50;99.90
31619;DHT22;18230;51.502;7.108;2022-10-16T01:50:36;14.50;99.90
31619;DHT22;18230;51.502;7.108;2022-10-16T01:55:42;14.40;99.90
31619;DHT22;18230;51.502;7.108;2022-10-16T02:00:46;14.40;99.90
31619;DHT22;18230;51.502;7.108;2022-10-16T02:05:51;14.40;99.90
31619;DHT22;18230;51.502;7.108;2022-10-16T02:10:54;14.40;99.90
31619;DHT22;18230;51.502;7.108;2022-10-16T02:15:55;14.50;99.90
31619;DHT22;18230;51.502;7.108;2022-10-16T02:21:07;14.50;99.90
31619;DHT22;18230;51.502;7.108;2022-10-16T02:26:15;14.50;99.90
31619;DHT22;18230;51.502;7.108;2022-10-16T02:31:22;14.50;99.90
31619;DHT22;18230;51.502;7.108;2022-10-16T02:36:26;14.60;99.90
31619;DHT22;18230;51.502;7.108;2022-10-16T02:41:27;14.60;99.90
31619;DHT22;18230;51.502;7.108;2022-10-16T02:46:28;14.60;99.90
31619;DHT22;18230;51.502;7.108;2022-10-16T02:51:28;14.70;99.90
31619;DHT22;18230;51.502;7.108;2022-10-16T02:56:29;14.80;99.90
31619;DHT22;18230;51.502;7.108;2022-10-16T03:01:31;14.80;99.90
31619;DHT22;18230;51.502;7.108;2022-10-16T03:06:31;14.80;99.90
31619;DHT22;18230;51.502;7.108;2022-10-16T03:11:32;14.80;99.90
31619;DHT22;18230;51.502;7.108;2022-10-16T03:16:33;14.70;99.90
31619;DHT22;18230;51.502;7.108;2022-10-16T03:21:33;14.80;99.90
31619;DHT22;18230;51.502;7.108;2022-10-16T03:26:34;14.80;99.90
31619;DHT22;18230;51.502;7.108;2022-10-16T03:31:34;14.80;99.90
31619;DHT22;18230;51.502;7.108;2022-10-16T03:36:35;14.70;99.90
31619;DHT22;18230;51.502;7.108;2022-10-16T03:41:36;14.70;99.90
31619;DHT22;18230;51.502;7.108;2022-10-16T03:46:36;14.70;99.90
31619;DHT22;18230;51.502;7.108;2022-10-16T03:51:37;14.70;99.90
31619;DHT22;18230;51.502;7.108;2022-10-16T03:56:38;14.70;99.90
31619;DHT22;18230;51.502;7.108;2022-10-16T04:01:39;14.60;99.90
31619;DHT22;18230;51.502;7.108;2022-10-16T04:06:39;14.60;99.90
31619;DHT22;18230;51.502;7.108;2022-10-16T04:11:40;14.60;99.90
31619;DHT22;18230;51.502;7.108;2022-10-16T04:16:41;14.60;99.90
31619;DHT22;18230;51.502;7.108;2022-10-16T04:21:41;14.60;99.90
31619;DHT22;18230;51.502;7.108;2022-10-16T04:26:42;14.50;99.90
31619;DHT22;18230;51.502;7.108;2022-10-16T04:31:42;14.50;99.90
31619;DHT22;18230;51.502;7.108;2022-10-16T04:36:43;14.50;99.90
31619;DHT22;18230;51.502;7.108;2022-10-16T04:41:44;14.50;99.90
31619;DHT22;18230;51.502;7.108;2022-10-16T04:46:44;14.50;99.90
31619;DHT22;18230;51.502;7.108;2022-10-16T04:51:45;14.50;99.90
31619;DHT22;18230;51.502;7.108;2022-10-16T04:56:45;14.40;99.90
31619;DHT22;18230;51.502;7.108;2022-10-16T05:01:48;14.40;99.90
31619;DHT22;18230;51.502;7.108;2022-10-16T05:06:49;14.40;99.90
31619;DHT22;18230;51.502;7.108;2022-10-16T05:11:49;14.40;99.90
31619;DHT22;18230;51.502;7.108;2022-10-16T05:16:50;14.40;99.90
31619;DHT22;18230;51.502;7.108;2022-10-16T05:21:51;14.50;99.90
31619;DHT22;18230;51.502;7.108;2022-10-16T05:26:52;14.50;99.90
31619;DHT22;18230;51.502;7.108;2022-10-16T05:31:53;14.40;99.90
31619;DHT22;18230;51.502;7.108;2022-10-16T05:36:53;14.40;99.90
31619;DHT22;18230;51.502;7.108;2022-10-16T05:41:54;14.50;99.90
31619;DHT22;18230;51.502;7.108;2022-10-16T05:46:55;14.40;99.90
31619;DHT22;18230;51.502;7.108;2022-10-16T05:51:55;14.40;99.90
31619;DHT22;18230;51.502;7.108;2022-10-16T05:56:56;14.40;99.90
31619;DHT22;18230;51.502;7.108;2022-10-16T06:01:57;14.40;99.90
31619;DHT22;18230;51.502;7.108;2022-10-16T06:07:00;14.40;99.90
31619;DHT22;18230;51.502;7.108;2022-10-16T06:12:01;14.40;99.90
31619;DHT22;18230;51.502;7.108;2022-10-16T06:17:02;14.30;99.90
31619;DHT22;18230;51.502;7.108;2022-10-16T06:22:02;14.30;99.90
31619;DHT22;18230;51.502;7.108;2022-10-16T06:27:04;14.30;99.90
31619;DHT22;18230;51.502;7.108;2022-10-16T06:32:05;14.30;99.90
31619;DHT22;18230;51.502;7.108;2022-10-16T06:37:06;14.40;99.90
31619;DHT22;18230;51.502;7.108;2022-10-16T06:42:06;14.40;99.90
31619;DHT22;18230;51.502;7.108;2022-10-16T06:47:07;14.50;99.90
31619;DHT22;18230;51.502;7.108;2022-10-16T06:52:08;14.60;99.90
31619;DHT22;18230;51.502;7.108;2022-10-16T06:57:08;14.60;99.90
31619;DHT22;18230;51.502;7.108;2022-10-16T07:02:10;14.70;99.90
31619;DHT22;18230;51.502;7.108;2022-10-16T07:07:10;14.60;99.90
31619;DHT22;18230;51.502;7.108;2022-10-16T07:12:12;14.60;99.90
31619;DHT22;18230;51.502;7.108;2022-10-16T07:17:15;14.60;99.90
31619;DHT22;18230;51.502;7.108;2022-10-16T07:22:16;14.70;99.90
31619;DHT22;18230;51.502;7.108;2022-10-16T07:27:16;14.70;99.90
31619;DHT22;18230;51.502;7.108;2022-10-16T07:32:17;14.60;99.90
31619;DHT22;18230;51.502;7.108;2022-10-16T07:37:18;14.70;99.90
31619;DHT22;18230;51.502;7.108;2022-10-16T07:42:18;14.70;99.90
31619;DHT22;18230;51.502;7.108;2022-10-16T07:47:20;15.00;99.90
31619;DHT22;18230;51.502;7.108;2022-10-16T07:52:21;15.20;99.90
31619;DHT22;18230;51.502;7.108;2022-10-16T07:57:21;15.40;99.90
31619;DHT22;18230;51.502;7.108;2022-10-16T08:02:22;15.60;99.90
31619;DHT22;18230;51.502;7.108;2022-10-16T08:07:26;15.80;99.90
31619;DHT22;18230;51.502;7.108;2022-10-16T08:12:26;16.00;99.90
31619;DHT22;18230;51.502;7.108;2022-10-16T08:17:27;16.10;99.90
31619;DHT22;18230;51.502;7.108;2022-10-16T08:22:28;16.30;99.90
31619;DHT22;18230;51.502;7.108;2022-10-16T08:27:32;16.40;99.90
31619;DHT22;18230;51.502;7.108;2022-10-16T08:32:33;16.50;99.90
31619;DHT22;18230;51.502;7.108;2022-10-16T08:37:34;16.60;99.90
31619;DHT22;18230;51.502;7.108;2022-10-16T08:53:46;17.00;99.90
31619;DHT22;18230;51.502;7.108;2022-10-16T08:58:49;17.00;99.90
31619;DHT22;18230;51.502;7.108;2022-10-16T09:15:22;17.30;99.90
31619;DHT22;18230;51.502;7.108;2022-10-16T09:20:38;17.40;99.90
31619;DHT22;18230;51.502;7.108;2022-10-16T09:25:45;17.60;99.90
31619;DHT22;18230;51.502;7.108;2022-10-16T09:30:48;17.70;99.90
31619;DHT22;18230;51.502;7.108;2022-10-16T09:35:51;17.80;99.90
31619;DHT22;18230;51.502;7.108;2022-10-16T09:40:54;17.90;99.90
31619;DHT22;18230;51.502;7.108;2022-10-16T09:46:07;17.90;99.90
31619;DHT22;18230;51.502;7.108;2022-10-16T09:51:29;17.90;99.90
31619;DHT22;18230;51.502;7.108;2022-10-16T09:56:32;18.00;99.90
31619;DHT22;18230;51.502;7.108;2022-10-16T10:01:39;18.20;99.90
31619;DHT22;18230;51.502;7.108;2022-10-16T10:06:47;18.20;99.90
31619;DHT22;18230;51.502;7.108;2022-10-16T10:11:55;18.20;99.90
31619;DHT22;18230;51.502;7.108;2022-10-16T10:17:10;18.30;99.90
31619;DHT22;18230;51.502;7.108;2022-10-16T11:32:18;19.50;99.90
31619;DHT22;18230;51.502;7.108;2022-10-16T11:37:25;19.70;99.90
31619;DHT22;18230;51.502;7.108;2022-10-16T11:42:39;19.80;99.90
31619;DHT22;18230;51.502;7.108;2022-10-16T11:47:45;19.90;99.90
31619;DHT22;18230;51.502;7.108;2022-10-16T11:52:55;20.30;99.90
31619;DHT22;18230;51.502;7.108;2022-10-16T11:58:31;20.40;99.90
31619;DHT22;18230;51.502;7.108;2022-10-16T12:08:45;20.50;99.90
31619;DHT22;18230;51.502;7.108;2022-10-16T12:13:46;20.50;99.90
31619;DHT22;18230;51.502;7.108;2022-10-16T12:18:49;20.50;99.90
31619;DHT22;18230;51.502;7.108;2022-10-16T12:23:52;20.40;99.90
31619;DHT22;18230;51.502;7.108;2022-10-16T12:28:55;20.50;99.90
31619;DHT22;18230;51.502;7.108;2022-10-16T12:33:59;20.40;99.90
31619;DHT22;18230;51.502;7.108;2022-10-16T12:39:05;20.30;99.90
31619;DHT22;18230;51.502;7.108;2022-10-16T12:44:25;20.20;99.90
31619;DHT22;18230;51.502;7.108;2022-10-16T12:49:30;20.20;99.90
31619;DHT22;18230;51.502;7.108;2022-10-16T12:54:35;20.30;99.90
31619;DHT22;18230;51.502;7.108;2022-10-16T12:59:58;20.40;99.90
31619;DHT22;18230;51.502;7.108;2022-10-16T13:21:33;20.40;99.90
31619;DHT22;18230;51.502;7.108;2022-10-16T13:32:09;20.30;99.90
31619;DHT22;18230;51.502;7.108;2022-10-16T13:37:19;20.30;99.90
31619;DHT22;18230;51.502;7.108;2022-10-16T13:42:26;20.30;99.90
31619;DHT22;18230;51.502;7.108;2022-10-16T13:47:28;20.20;99.90
31619;DHT22;18230;51.502;7.108;2022-10-16T13:52:29;20.20;99.90
31619;DHT22;18230;51.502;7.108;2022-10-16T13:57:30;20.20;99.90
31619;DHT22;18230;51.502;7.108;2022-10-16T14:02:36;20.20;99.90
31619;DHT22;18230;51.502;7.108;2022-10-16T14:07:39;20.10;99.90
31619;DHT22;18230;51.502;7.108;2022-10-16T14:12:41;20.30;99.90
31619;DHT22;18230;51.502;7.108;2022-10-16T14:17:44;20.50;99.90
31619;DHT22;18230;51.502;7.108;2022-10-16T14:22:46;20.40;99.90
31619;DHT22;18230;51.502;7.108;2022-10-16T14:28:20;20.40;99.90
31619;DHT22;18230;51.502;7.108;2022-10-16T14:44:29;20.10;99.90
31619;DHT22;18230;51.502;7.108;2022-10-16T14:49:46;20.10;99.90
31619;DHT22;18230;51.502;7.108;2022-10-16T14:54:50;20.20;99.90
31619;DHT22;18230;51.502;7.108;2022-10-16T15:00:19;20.20;99.90
31619;DHT22;18230;51.502;7.108;2022-10-16T15:05:25;20.10;99.90
31619;DHT22;18230;51.502;7.108;2022-10-16T15:10:28;20.00;99.90
31619;DHT22;18230;51.502;7.108;2022-10-16T15:15:38;20.10;99.90
31619;DHT22;18230;51.502;7.108;2022-10-16T15:20:39;20.00;99.90
31619;DHT22;18230;51.502;7.108;2022-10-16T15:30:54;19.90;99.90
31619;DHT22;18230;51.502;7.108;2022-10-16T15:36:08;19.80;99.90
31619;DHT22;18230;51.502;7.108;2022-10-16T15:41:20;19.80;99.90
31619;DHT22;18230;51.502;7.108;2022-10-16T15:46:26;19.70;99.90
31619;DHT22;18230;51.502;7.108;2022-10-16T15:57:48;19.50;99.90
31619;DHT22;18230;51.502;7.108;2022-10-16T17:02:11;18.60;99.90
31619;DHT22;18230;51.502;7.108;2022-10-16T17:07:12;18.50;99.90
31619;DHT22;18230;51.502;7.108;2022-10-16T17:12:12;18.50;99.90
31619;DHT22;18230;51.502;7.108;2022-10-16T17:17:13;18.40;99.90
31619;DHT22;18230;51.502;7.108;2022-10-16T17:22:14;18.40;99.90
31619;DHT22;18230;51.502;7.108;2022-10-16T17:27:14;18.30;99.90
31619;DHT22;18230;51.502;7.108;2022-10-16T17:32:15;18.30;99.90
31619;DHT22;18230;51.502;7.108;2022-10-16T17:37:21;18.20;99.90
31619;DHT22;18230;51.502;7.108;2022-10-16T17:42:22;18.10;99.90
31619;DHT22;18230;51.502;7.108;2022-10-16T17:47:23;18.00;99.90
31619;DHT22;18230;51.502;7.108;2022-10-16T17:52:23;18.00;99.90
31619;DHT22;18230;51.502;7.108;2022-10-16T17:57:24;18.00;99.90
31619;DHT22;18230;51.502;7.108;2022-10-16T18:02:25;17.90;99.90
31619;DHT22;18230;51.502;7.108;2022-10-16T18:07:26;17.90;99.90
31619;DHT22;18230;51.502;7.108;2022-10-16T18:12:27;17.80;99.90
31619;DHT22;18230;51.502;7.108;2022-10-16T18:17:34;17.80;99.90
31619;DHT22;18230;51.502;7.108;2022-10-16T18:22:37;17.80;99.90
31619;DHT22;18230;51.502;7.108;2022-10-16T18:27:38;17.80;99.90
31619;DHT22;18230;51.502;7.108;2022-10-16T18:32:39;17.70;99.90
31619;DHT22;18230;51.502;7.108;2022-10-16T18:37:40;17.60;99.90
31619;DHT22;18230;51.502;7.108;2022-10-16T18:42:40;17.60;99.90
31619;DHT22;18230;51.502;7.108;2022-10-16T18:47:44;17.60;99.90
31619;DHT22;18230;51.502;7.108;2022-10-16T18:52:48;17.60;99.90
31619;DHT22;18230;51.502;7.108;2022-10-16T18:57:52;17.60;99.90
31619;DHT22;18230;51.502;7.108;2022-10-16T19:02:54;17.60;99.90
31619;DHT22;18230;51.502;7.108;2022-10-16T19:07:55;17.60;99.90
31619;DHT22;18230;51.502;7.108;2022-10-16T19:12:56;17.60;99.90
31619;DHT22;18230;51.502;7.108;2022-10-16T19:17:56;17.70;99.90
31619;DHT22;18230;51.502;7.108;2022-10-16T19:22:57;17.70;99.90
31619;DHT22;18230;51.502;7.108;2022-10-16T19:27:58;17.70;99.90
31619;DHT22;18230;51.502;7.108;2022-10-16T19:33:01;17.70;99.90
31619;DHT22;18230;51.502;7.108;2022-10-16T19:38:01;17.60;99.90
31619;DHT22;18230;51.502;7.108;2022-10-16T19:43:02;17.60;99.90
31619;DHT22;18230;51.502;7.108;2022-10-16T19:48:04;17.50;99.90
31619;DHT22;18230;51.502;7.108;2022-10-16T19:53:04;17.30;99.90
31619;DHT22;18230;51.502;7.108;2022-10-16T19:58:05;17.40;99.90
31619;DHT22;18230;51.502;7.108;2022-10-16T20:03:06;17.30;99.90
31619;DHT22;18230;51.502;7.108;2022-10-16T20:08:07;17.30;99.90
31619;DHT22;18230;51.502;7.108;2022-10-16T20:13:08;17.30;99.90
31619;DHT22;18230;51.502;7.108;2022-10-16T20:18:08;17.20;99.90
31619;DHT22;18230;51.502;7.108;2022-10-16T20:23:09;17.20;99.90
31619;DHT22;18230;51.502;7.108;2022-10-16T20:28:12;17.10;99.90
31619;DHT22;18230;51.502;7.108;2022-10-16T20:33:14;17.10;99.90
31619;DHT22;18230;51.502;7.108;2022-10-16T20:38:16;17.10;99.90
31619;DHT22;18230;51.502;7.108;2022-10-16T20:43:19;17.10;99.90
31619;DHT22;18230;51.502;7.108;2022-10-16T20:48:20;17.10;99.90
31619;DHT22;18230;51.502;7.108;2022-10-16T20:53:21;17.10;99.90
31619;DHT22;18230;51.502;7.108;2022-10-16T20:58:22;17.10;99.90
31619;DHT22;18230;51.502;7.108;2022-10-16T21:03:22;17.00;99.90
31619;DHT22;18230;51.502;7.108;2022-10-16T21:08:23;16.90;99.90
31619;DHT22;18230;51.502;7.108;2022-10-16T21:13:24;16.90;99.90
31619;DHT22;18230;51.502;7.108;2022-10-16T21:18:26;16.90;99.90
31619;DHT22;18230;51.502;7.108;2022-10-16T21:23:27;16.90;99.90
31619;DHT22;18230;51.502;7.108;2022-10-16T21:28:30;16.80;99.90
31619;DHT22;18230;51.502;7.108;2022-10-16T21:33:31;16.80;99.90
31619;DHT22;18230;51.502;7.108;2022-10-16T21:38:31;16.70;99.90
31619;DHT22;18230;51.502;7.108;2022-10-16T21:43:32;16.70;99.90
31619;DHT22;18230;51.502;7.108;2022-10-16T21:48:33;16.70;99.90
31619;DHT22;18230;51.502;7.108;2022-10-16T21:53:33;16.60;99.90
31619;DHT22;18230;51.502;7.108;2022-10-16T21:58:34;16.60;99.90
31619;DHT22;18230;51.502;7.108;2022-10-16T22:03:35;16.50;99.90
31619;DHT22;18230;51.502;7.108;2022-10-16T22:08:36;16.30;99.90
31619;DHT22;18230;51.502;7.108;2022-10-16T22:13:38;16.30;99.90
31619;DHT22;18230;51.502;7.108;2022-10-16T22:18:38;16.30;99.90
31619;DHT22;18230;51.502;7.108;2022-10-16T22:23:39;16.30;99.90
31619;DHT22;18230;51.502;7.108;2022-10-16T22:28:40;16.20;99.90
31619;DHT22;18230;51.502;7.108;2022-10-16T22:33:42;16.10;99.90
31619;DHT22;18230;51.502;7.108;2022-10-16T22:38:43;16.20;99.90
31619;DHT22;18230;51.502;7.108;2022-10-16T22:43:45;16.20;99.90
31619;DHT22;18230;51.502;7.108;2022-10-16T22:48:47;16.30;99.90
31619;DHT22;18230;51.502;7.108;2022-10-16T22:53:48;16.30;99.90
31619;DHT22;18230;51.502;7.108;2022-10-16T22:58:49;16.30;99.90
31619;DHT22;18230;51.502;7.108;2022-10-16T23:03:50;16.30;99.90
31619;DHT22;18230;51.502;7.108;2022-10-16T23:08:52;16.40;99.90
31619;DHT22;18230;51.502;7.108;2022-10-16T23:13:54;16.40;99.90
31619;DHT22;18230;51.502;7.108;2022-10-16T23:18:55;16.40;99.90
31619;DHT22;18230;51.502;7.108;2022-10-16T23:23:55;16.50;99.90
31619;DHT22;18230;51.502;7.108;2022-10-16T23:28:57;16.40;99.90
31619;DHT22;18230;51.502;7.108;2022-10-16T23:33:58;16.40;99.90
31619;DHT22;18230;51.502;7.108;2022-10-16T23:38:58;16.30;99.90
31619;DHT22;18230;51.502;7.108;2022-10-16T23:43:59;16.30;99.90
31619;DHT22;18230;51.502;7.108;2022-10-16T23:49:00;16.30;99.90
31619;DHT22;18230;51.502;7.108;2022-10-16T23:54:00;16.20;99.90
31619;DHT22;18230;51.502;7.108;2022-10-16T23:59:01;16.10;99.90
